sensor_id;sensor_type;location;lat;lon;timestamp;P1;durP1;ratioP1;P2;durP2;ratioP2
41903;SDS011;27586;51.124;4.182;2023-08-24T00:01:19;5.82;;;3.42;;
41903;SDS011;27586;51.124;4.182;2023-08-24T00:03:45;5.85;;;3.45;;
41903;SDS011;27586;51.124;4.182;2023-08-24T00:06:11;6.15;;;3.63;;
41903;SDS011;27586;51.124;4.182;2023-08-24T00:08:37;6.55;;;3.67;;
41903;SDS011;27586;51.124;4.182;2023-08-24T00:11:03;7.28;;;4.10;;
41903;SDS011;27586;51.124;4.182;2023-08-24T00:13:30;5.00;;;3.63;;
41903;SDS011;27586;51.124;4.182;2023-08-24T00:15:56;5.32;;;4.05;;
41903;SDS011;27586;51.124;4.182;2023-08-24T00:18:21;5.82;;;3.90;;
41903;SDS011;27586;51.124;4.182;2023-08-24T00:20:50;6.22;;;4.28;;
41903;SDS011;27586;51.124;4.182;2023-08-24T00:23:16;7.18;;;4.18;;
41903;SDS011;27586;51.124;4.182;2023-08-24T00:25:43;7.32;;;4.28;;
41903;SDS011;27586;51.124;4.182;2023-08-24T00:28:09;6.22;;;4.53;;
41903;SDS011;27586;51.124;4.182;2023-08-24T00:30:36;6.45;;;4.45;;
41903;SDS011;27586;51.124;4.182;2023-08-24T00:33:02;6.20;;;4.20;;
41903;SDS011;27586;51.124;4.182;2023-08-24T00:35:27;7.03;;;4.40;;
41903;SDS011;27586;51.124;4.182;2023-08-24T00:37:53;6.35;;;4.70;;
41903;SDS011;27586;51.124;4.182;2023-08-24T00:40:19;5.35;;;4.38;;
41903;SDS011;27586;51.124;4.182;2023-08-24T00:42:44;6.30;;;4.18;;
41903;SDS011;27586;51.124;4.182;2023-08-24T00:45:14;7.00;;;4.30;;
41903;SDS011;27586;51.124;4.182;2023-08-24T00:47:41;5.97;;;4.50;;
41903;SDS011;27586;51.124;4.182;2023-08-24T00:50:09;5.72;;;4.40;;
41903;SDS011;27586;51.124;4.182;2023-08-24T00:52:36;6.10;;;3.78;;
41903;SDS011;27586;51.124;4.182;2023-08-24T00:55:04;8.80;;;4.65;;
41903;SDS011;27586;51.124;4.182;2023-08-24T00:57:31;5.38;;;4.22;;
41903;SDS011;27586;51.124;4.182;2023-08-24T00:59:58;6.25;;;4.63;;
41903;SDS011;27586;51.124;4.182;2023-08-24T01:02:27;5.75;;;4.40;;
41903;SDS011;27586;51.124;4.182;2023-08-24T01:04:53;6.82;;;3.85;;
41903;SDS011;27586;51.124;4.182;2023-08-24T01:07:19;5.90;;;4.20;;
41903;SDS011;27586;51.124;4.182;2023-08-24T01:09:45;6.72;;;4.25;;
41903;SDS011;27586;51.124;4.182;2023-08-24T01:15:19;7.07;;;4.75;;
41903;SDS011;27586;51.124;4.182;2023-08-24T01:18:04;5.25;;;3.92;;
41903;SDS011;27586;51.124;4.182;2023-08-24T01:20:34;7.00;;;4.47;;
41903;SDS011;27586;51.124;4.182;2023-08-24T01:23:07;6.70;;;4.40;;
41903;SDS011;27586;51.124;4.182;2023-08-24T01:28:04;8.25;;;4.53;;
41903;SDS011;27586;51.124;4.182;2023-08-24T01:30:33;7.50;;;4.43;;
41903;SDS011;27586;51.124;4.182;2023-08-24T01:33:02;8.38;;;4.35;;
41903;SDS011;27586;51.124;4.182;2023-08-24T01:35:29;6.55;;;4.03;;
41903;SDS011;27586;51.124;4.182;2023-08-24T01:37:55;5.97;;;3.80;;
41903;SDS011;27586;51.124;4.182;2023-08-24T01:40:25;6.00;;;4.65;;
41903;SDS011;27586;51.124;4.182;2023-08-24T01:42:59;6.13;;;4.53;;
41903;SDS011;27586;51.124;4.182;2023-08-24T01:45:29;8.27;;;4.60;;
41903;SDS011;27586;51.124;4.182;2023-08-24T01:47:56;6.38;;;4.80;;
41903;SDS011;27586;51.124;4.182;2023-08-24T01:50:24;8.05;;;5.05;;
41903;SDS011;27586;51.124;4.182;2023-08-24T01:52:50;6.18;;;4.70;;
41903;SDS011;27586;51.124;4.182;2023-08-24T01:55:19;6.88;;;4.90;;
41903;SDS011;27586;51.124;4.182;2023-08-24T01:57:45;8.32;;;4.90;;
41903;SDS011;27586;51.124;4.182;2023-08-24T02:00:11;7.32;;;4.72;;
41903;SDS011;27586;51.124;4.182;2023-08-24T02:02:37;8.23;;;5.10;;
41903;SDS011;27586;51.124;4.182;2023-08-24T02:05:03;8.88;;;5.45;;
41903;SDS011;27586;51.124;4.182;2023-08-24T02:07:29;5.90;;;5.18;;
41903;SDS011;27586;51.124;4.182;2023-08-24T02:09:55;6.15;;;5.30;;
41903;SDS011;27586;51.124;4.182;2023-08-24T02:12:21;9.40;;;6.47;;
41903;SDS011;27586;51.124;4.182;2023-08-24T02:14:46;9.45;;;6.13;;
41903;SDS011;27586;51.124;4.182;2023-08-24T02:17:12;7.78;;;6.20;;
41903;SDS011;27586;51.124;4.182;2023-08-24T02:19:39;6.95;;;5.53;;
41903;SDS011;27586;51.124;4.182;2023-08-24T02:22:06;6.78;;;5.85;;
41903;SDS011;27586;51.124;4.182;2023-08-24T02:24:32;8.25;;;6.55;;
41903;SDS011;27586;51.124;4.182;2023-08-24T02:26:58;8.82;;;6.50;;
41903;SDS011;27586;51.124;4.182;2023-08-24T02:29:24;8.20;;;6.28;;
41903;SDS011;27586;51.124;4.182;2023-08-24T02:31:50;9.43;;;6.68;;
41903;SDS011;27586;51.124;4.182;2023-08-24T02:34:16;8.02;;;6.90;;
41903;SDS011;27586;51.124;4.182;2023-08-24T02:36:41;7.53;;;6.60;;
41903;SDS011;27586;51.124;4.182;2023-08-24T02:39:07;7.97;;;6.93;;
41903;SDS011;27586;51.124;4.182;2023-08-24T02:41:33;9.82;;;7.57;;
41903;SDS011;27586;51.124;4.182;2023-08-24T02:43:59;10.43;;;7.28;;
41903;SDS011;27586;51.124;4.182;2023-08-24T02:46:25;8.77;;;7.50;;
41903;SDS011;27586;51.124;4.182;2023-08-24T02:48:51;7.90;;;7.10;;
41903;SDS011;27586;51.124;4.182;2023-08-24T02:51:17;8.98;;;7.68;;
41903;SDS011;27586;51.124;4.182;2023-08-24T02:53:42;11.52;;;7.47;;
41903;SDS011;27586;51.124;4.182;2023-08-24T02:56:08;8.90;;;7.78;;
41903;SDS011;27586;51.124;4.182;2023-08-24T02:58:34;10.13;;;7.45;;
41903;SDS011;27586;51.124;4.182;2023-08-24T03:01:03;13.52;;;7.68;;
41903;SDS011;27586;51.124;4.182;2023-08-24T03:03:32;9.48;;;7.22;;
41903;SDS011;27586;51.124;4.182;2023-08-24T03:05:59;10.90;;;8.13;;
41903;SDS011;27586;51.124;4.182;2023-08-24T03:08:30;10.18;;;8.00;;
41903;SDS011;27586;51.124;4.182;2023-08-24T03:10:57;9.98;;;7.90;;
41903;SDS011;27586;51.124;4.182;2023-08-24T03:13:24;12.20;;;8.23;;
41903;SDS011;27586;51.124;4.182;2023-08-24T03:15:50;10.23;;;8.00;;
41903;SDS011;27586;51.124;4.182;2023-08-24T03:18:17;11.48;;;8.50;;
41903;SDS011;27586;51.124;4.182;2023-08-24T03:20:43;14.15;;;8.70;;
41903;SDS011;27586;51.124;4.182;2023-08-24T03:23:10;10.18;;;8.35;;
41903;SDS011;27586;51.124;4.182;2023-08-24T03:25:36;10.75;;;7.82;;
41903;SDS011;27586;51.124;4.182;2023-08-24T03:28:03;9.00;;;8.07;;
41903;SDS011;27586;51.124;4.182;2023-08-24T03:30:29;9.23;;;7.85;;
41903;SDS011;27586;51.124;4.182;2023-08-24T03:32:55;10.20;;;8.02;;
41903;SDS011;27586;51.124;4.182;2023-08-24T03:35:21;10.38;;;8.25;;
41903;SDS011;27586;51.124;4.182;2023-08-24T03:37:47;10.90;;;8.00;;
41903;SDS011;27586;51.124;4.182;2023-08-24T03:40:12;9.05;;;8.00;;
41903;SDS011;27586;51.124;4.182;2023-08-24T03:42:38;10.43;;;8.27;;
41903;SDS011;27586;51.124;4.182;2023-08-24T03:45:04;11.25;;;8.00;;
41903;SDS011;27586;51.124;4.182;2023-08-24T03:47:31;8.40;;;7.50;;
41903;SDS011;27586;51.124;4.182;2023-08-24T03:49:56;7.68;;;6.97;;
41903;SDS011;27586;51.124;4.182;2023-08-24T03:52:22;10.02;;;7.80;;
41903;SDS011;27586;51.124;4.182;2023-08-24T03:54:47;9.65;;;8.25;;
41903;SDS011;27586;51.124;4.182;2023-08-24T03:57:14;9.05;;;7.72;;
41903;SDS011;27586;51.124;4.182;2023-08-24T03:59:40;8.57;;;7.75;;
41903;SDS011;27586;51.124;4.182;2023-08-24T04:02:06;9.70;;;7.75;;
41903;SDS011;27586;51.124;4.182;2023-08-24T04:04:32;8.32;;;7.25;;
41903;SDS011;27586;51.124;4.182;2023-08-24T04:06:58;8.82;;;7.40;;
41903;SDS011;27586;51.124;4.182;2023-08-24T04:09:24;11.10;;;8.27;;
41903;SDS011;27586;51.124;4.182;2023-08-24T04:11:49;8.57;;;7.28;;
41903;SDS011;27586;51.124;4.182;2023-08-24T04:14:15;9.25;;;8.35;;
41903;SDS011;27586;51.124;4.182;2023-08-24T04:16:41;10.55;;;7.72;;
41903;SDS011;27586;51.124;4.182;2023-08-24T04:19:07;8.63;;;7.70;;
41903;SDS011;27586;51.124;4.182;2023-08-24T04:21:36;9.48;;;8.05;;
41903;SDS011;27586;51.124;4.182;2023-08-24T04:24:01;9.55;;;7.53;;
41903;SDS011;27586;51.124;4.182;2023-08-24T04:26:27;9.43;;;8.15;;
41903;SDS011;27586;51.124;4.182;2023-08-24T04:28:53;9.35;;;8.07;;
41903;SDS011;27586;51.124;4.182;2023-08-24T04:31:18;8.63;;;7.60;;
41903;SDS011;27586;51.124;4.182;2023-08-24T04:33:45;8.38;;;7.20;;
41903;SDS011;27586;51.124;4.182;2023-08-24T04:36:10;9.10;;;7.57;;
41903;SDS011;27586;51.124;4.182;2023-08-24T04:38:36;8.57;;;7.55;;
41903;SDS011;27586;51.124;4.182;2023-08-24T04:41:02;9.68;;;8.70;;
41903;SDS011;27586;51.124;4.182;2023-08-24T04:43:32;9.63;;;8.57;;
41903;SDS011;27586;51.124;4.182;2023-08-24T04:45:58;8.82;;;7.93;;
41903;SDS011;27586;51.124;4.182;2023-08-24T04:48:24;11.45;;;8.43;;
41903;SDS011;27586;51.124;4.182;2023-08-24T04:50:51;9.85;;;8.88;;
41903;SDS011;27586;51.124;4.182;2023-08-24T04:53:18;9.40;;;8.40;;
41903;SDS011;27586;51.124;4.182;2023-08-24T04:55:44;10.90;;;8.98;;
41903;SDS011;27586;51.124;4.182;2023-08-24T04:58:11;10.15;;;8.70;;
41903;SDS011;27586;51.124;4.182;2023-08-24T05:00:40;11.02;;;8.82;;
41903;SDS011;27586;51.124;4.182;2023-08-24T05:03:06;9.63;;;8.50;;
41903;SDS011;27586;51.124;4.182;2023-08-24T05:05:33;10.70;;;8.07;;
41903;SDS011;27586;51.124;4.182;2023-08-24T05:07:59;10.23;;;9.15;;
41903;SDS011;27586;51.124;4.182;2023-08-24T05:10:29;14.05;;;9.10;;
41903;SDS011;27586;51.124;4.182;2023-08-24T05:12:55;9.60;;;8.45;;
41903;SDS011;27586;51.124;4.182;2023-08-24T05:15:21;9.93;;;9.00;;
41903;SDS011;27586;51.124;4.182;2023-08-24T05:17:47;10.95;;;9.52;;
41903;SDS011;27586;51.124;4.182;2023-08-24T05:20:12;11.32;;;9.27;;
41903;SDS011;27586;51.124;4.182;2023-08-24T05:22:38;10.70;;;9.13;;
41903;SDS011;27586;51.124;4.182;2023-08-24T05:25:05;11.73;;;9.23;;
41903;SDS011;27586;51.124;4.182;2023-08-24T05:27:31;10.73;;;9.15;;
41903;SDS011;27586;51.124;4.182;2023-08-24T05:29:57;9.50;;;8.57;;
41903;SDS011;27586;51.124;4.182;2023-08-24T05:32:22;9.43;;;8.50;;
41903;SDS011;27586;51.124;4.182;2023-08-24T05:34:48;12.38;;;9.38;;
41903;SDS011;27586;51.124;4.182;2023-08-24T05:37:14;10.27;;;9.27;;
41903;SDS011;27586;51.124;4.182;2023-08-24T05:39:40;9.73;;;8.55;;
41903;SDS011;27586;51.124;4.182;2023-08-24T05:42:06;9.85;;;8.75;;
41903;SDS011;27586;51.124;4.182;2023-08-24T05:44:31;10.88;;;9.45;;
41903;SDS011;27586;51.124;4.182;2023-08-24T05:46:57;10.02;;;9.02;;
41903;SDS011;27586;51.124;4.182;2023-08-24T05:49:23;12.07;;;9.32;;
41903;SDS011;27586;51.124;4.182;2023-08-24T05:51:50;10.45;;;9.13;;
41903;SDS011;27586;51.124;4.182;2023-08-24T05:54:16;11.45;;;9.40;;
41903;SDS011;27586;51.124;4.182;2023-08-24T05:56:45;10.60;;;8.88;;
41903;SDS011;27586;51.124;4.182;2023-08-24T05:59:11;9.20;;;8.20;;
41903;SDS011;27586;51.124;4.182;2023-08-24T06:01:37;12.52;;;9.00;;
41903;SDS011;27586;51.124;4.182;2023-08-24T06:04:06;9.30;;;8.40;;
41903;SDS011;27586;51.124;4.182;2023-08-24T06:06:33;11.93;;;9.65;;
41903;SDS011;27586;51.124;4.182;2023-08-24T06:08:59;12.95;;;9.43;;
41903;SDS011;27586;51.124;4.182;2023-08-24T06:11:24;10.18;;;7.78;;
41903;SDS011;27586;51.124;4.182;2023-08-24T06:13:50;9.27;;;7.85;;
41903;SDS011;27586;51.124;4.182;2023-08-24T06:16:18;9.18;;;8.23;;
41903;SDS011;27586;51.124;4.182;2023-08-24T06:18:44;10.50;;;8.73;;
41903;SDS011;27586;51.124;4.182;2023-08-24T06:21:11;10.82;;;8.52;;
41903;SDS011;27586;51.124;4.182;2023-08-24T06:23:36;10.70;;;8.25;;
41903;SDS011;27586;51.124;4.182;2023-08-24T06:26:03;9.43;;;8.15;;
41903;SDS011;27586;51.124;4.182;2023-08-24T06:28:29;9.73;;;8.63;;
41903;SDS011;27586;51.124;4.182;2023-08-24T06:30:55;9.65;;;7.55;;
41903;SDS011;27586;51.124;4.182;2023-08-24T06:33:21;9.57;;;7.60;;
41903;SDS011;27586;51.124;4.182;2023-08-24T06:35:51;9.60;;;8.60;;
41903;SDS011;27586;51.124;4.182;2023-08-24T06:38:17;8.55;;;6.45;;
41903;SDS011;27586;51.124;4.182;2023-08-24T06:40:43;8.35;;;7.35;;
41903;SDS011;27586;51.124;4.182;2023-08-24T06:43:08;8.00;;;6.95;;
41903;SDS011;27586;51.124;4.182;2023-08-24T06:45:34;8.82;;;7.40;;
41903;SDS011;27586;51.124;4.182;2023-08-24T06:48:00;9.45;;;7.45;;
41903;SDS011;27586;51.124;4.182;2023-08-24T06:50:25;7.72;;;6.85;;
41903;SDS011;27586;51.124;4.182;2023-08-24T06:52:51;9.57;;;7.20;;
41903;SDS011;27586;51.124;4.182;2023-08-24T06:55:17;8.00;;;7.20;;
41903;SDS011;27586;51.124;4.182;2023-08-24T06:57:48;9.45;;;7.65;;
41903;SDS011;27586;51.124;4.182;2023-08-24T07:00:18;9.20;;;6.60;;
41903;SDS011;27586;51.124;4.182;2023-08-24T07:02:45;10.27;;;7.15;;
41903;SDS011;27586;51.124;4.182;2023-08-24T07:05:11;12.50;;;7.15;;
41903;SDS011;27586;51.124;4.182;2023-08-24T07:07:37;8.32;;;6.60;;
41903;SDS011;27586;51.124;4.182;2023-08-24T07:10:03;7.95;;;7.03;;
41903;SDS011;27586;51.124;4.182;2023-08-24T07:12:31;8.57;;;6.70;;
41903;SDS011;27586;51.124;4.182;2023-08-24T07:14:56;9.32;;;6.72;;
41903;SDS011;27586;51.124;4.182;2023-08-24T07:17:22;8.80;;;6.25;;
41903;SDS011;27586;51.124;4.182;2023-08-24T07:19:48;8.48;;;6.30;;
41903;SDS011;27586;51.124;4.182;2023-08-24T07:22:14;8.30;;;6.15;;
41903;SDS011;27586;51.124;4.182;2023-08-24T07:24:40;7.13;;;5.90;;
41903;SDS011;27586;51.124;4.182;2023-08-24T07:27:06;9.13;;;5.68;;
41903;SDS011;27586;51.124;4.182;2023-08-24T07:29:33;7.18;;;5.82;;
41903;SDS011;27586;51.124;4.182;2023-08-24T07:31:59;7.07;;;5.68;;
41903;SDS011;27586;51.124;4.182;2023-08-24T07:34:25;7.60;;;6.00;;
41903;SDS011;27586;51.124;4.182;2023-08-24T07:36:50;7.68;;;6.22;;
41903;SDS011;27586;51.124;4.182;2023-08-24T07:39:16;6.82;;;5.82;;
41903;SDS011;27586;51.124;4.182;2023-08-24T07:41:42;8.05;;;6.38;;
41903;SDS011;27586;51.124;4.182;2023-08-24T07:44:07;8.95;;;6.18;;
41903;SDS011;27586;51.124;4.182;2023-08-24T07:46:33;10.60;;;6.82;;
41903;SDS011;27586;51.124;4.182;2023-08-24T07:48:59;7.85;;;6.18;;
41903;SDS011;27586;51.124;4.182;2023-08-24T07:51:25;8.20;;;6.50;;
41903;SDS011;27586;51.124;4.182;2023-08-24T07:53:51;11.30;;;6.40;;
41903;SDS011;27586;51.124;4.182;2023-08-24T07:56:17;9.10;;;6.40;;
41903;SDS011;27586;51.124;4.182;2023-08-24T07:58:44;7.35;;;6.53;;
41903;SDS011;27586;51.124;4.182;2023-08-24T08:01:09;8.70;;;6.03;;
41903;SDS011;27586;51.124;4.182;2023-08-24T08:03:36;8.48;;;6.38;;
41903;SDS011;27586;51.124;4.182;2023-08-24T08:06:02;9.18;;;6.20;;
41903;SDS011;27586;51.124;4.182;2023-08-24T08:08:28;8.85;;;6.40;;
41903;SDS011;27586;51.124;4.182;2023-08-24T08:10:57;8.95;;;7.03;;
41903;SDS011;27586;51.124;4.182;2023-08-24T08:13:25;7.22;;;6.10;;
41903;SDS011;27586;51.124;4.182;2023-08-24T08:15:51;7.40;;;5.55;;
41903;SDS011;27586;51.124;4.182;2023-08-24T08:18:16;10.23;;;6.63;;
41903;SDS011;27586;51.124;4.182;2023-08-24T08:20:42;10.23;;;6.55;;
41903;SDS011;27586;51.124;4.182;2023-08-24T08:23:08;8.70;;;6.45;;
41903;SDS011;27586;51.124;4.182;2023-08-24T08:25:33;7.78;;;6.47;;
41903;SDS011;27586;51.124;4.182;2023-08-24T08:27:59;7.35;;;5.90;;
41903;SDS011;27586;51.124;4.182;2023-08-24T08:30:24;8.55;;;6.63;;
41903;SDS011;27586;51.124;4.182;2023-08-24T08:32:50;9.23;;;6.07;;
41903;SDS011;27586;51.124;4.182;2023-08-24T08:35:17;8.75;;;6.57;;
41903;SDS011;27586;51.124;4.182;2023-08-24T08:37:43;11.95;;;6.45;;
41903;SDS011;27586;51.124;4.182;2023-08-24T08:40:10;7.82;;;6.20;;
41903;SDS011;27586;51.124;4.182;2023-08-24T08:42:36;8.77;;;6.65;;
41903;SDS011;27586;51.124;4.182;2023-08-24T08:45:02;10.45;;;6.47;;
41903;SDS011;27586;51.124;4.182;2023-08-24T08:47:33;8.35;;;6.43;;
41903;SDS011;27586;51.124;4.182;2023-08-24T08:49:59;7.35;;;5.43;;
41903;SDS011;27586;51.124;4.182;2023-08-24T08:52:28;10.10;;;6.28;;
41903;SDS011;27586;51.124;4.182;2023-08-24T08:54:54;7.05;;;5.90;;
41903;SDS011;27586;51.124;4.182;2023-08-24T08:57:20;9.52;;;6.90;;
41903;SDS011;27586;51.124;4.182;2023-08-24T08:59:47;8.52;;;6.47;;
41903;SDS011;27586;51.124;4.182;2023-08-24T09:02:16;9.07;;;6.50;;
41903;SDS011;27586;51.124;4.182;2023-08-24T09:04:44;8.93;;;6.53;;
41903;SDS011;27586;51.124;4.182;2023-08-24T09:07:10;10.68;;;6.25;;
41903;SDS011;27586;51.124;4.182;2023-08-24T09:09:39;11.35;;;6.63;;
41903;SDS011;27586;51.124;4.182;2023-08-24T09:12:06;8.43;;;6.88;;
41903;SDS011;27586;51.124;4.182;2023-08-24T09:14:32;9.23;;;6.47;;
41903;SDS011;27586;51.124;4.182;2023-08-24T09:16:58;7.78;;;6.55;;
41903;SDS011;27586;51.124;4.182;2023-08-24T09:19:27;11.13;;;7.43;;
41903;SDS011;27586;51.124;4.182;2023-08-24T09:21:56;8.60;;;6.65;;
41903;SDS011;27586;51.124;4.182;2023-08-24T09:24:29;9.02;;;7.43;;
41903;SDS011;27586;51.124;4.182;2023-08-24T09:26:56;7.65;;;6.57;;
41903;SDS011;27586;51.124;4.182;2023-08-24T09:29:22;12.45;;;6.97;;
41903;SDS011;27586;51.124;4.182;2023-08-24T09:31:49;10.48;;;6.63;;
41903;SDS011;27586;51.124;4.182;2023-08-24T09:34:18;11.35;;;7.53;;
41903;SDS011;27586;51.124;4.182;2023-08-24T09:36:45;9.65;;;7.05;;
41903;SDS011;27586;51.124;4.182;2023-08-24T09:39:11;9.63;;;7.25;;
41903;SDS011;27586;51.124;4.182;2023-08-24T09:41:44;13.45;;;8.00;;
41903;SDS011;27586;51.124;4.182;2023-08-24T09:44:11;12.20;;;8.43;;
41903;SDS011;27586;51.124;4.182;2023-08-24T09:46:37;12.50;;;8.60;;
41903;SDS011;27586;51.124;4.182;2023-08-24T09:49:08;11.88;;;9.13;;
41903;SDS011;27586;51.124;4.182;2023-08-24T09:51:35;12.95;;;9.43;;
41903;SDS011;27586;51.124;4.182;2023-08-24T09:54:02;11.60;;;8.52;;
41903;SDS011;27586;51.124;4.182;2023-08-24T09:56:33;10.20;;;7.63;;
41903;SDS011;27586;51.124;4.182;2023-08-24T09:59:02;9.23;;;8.30;;
41903;SDS011;27586;51.124;4.182;2023-08-24T10:01:37;10.52;;;8.00;;
41903;SDS011;27586;51.124;4.182;2023-08-24T10:04:06;10.13;;;8.02;;
41903;SDS011;27586;51.124;4.182;2023-08-24T10:06:34;11.70;;;8.50;;
41903;SDS011;27586;51.124;4.182;2023-08-24T10:09:04;15.00;;;8.38;;
41903;SDS011;27586;51.124;4.182;2023-08-24T10:11:34;9.95;;;8.00;;
41903;SDS011;27586;51.124;4.182;2023-08-24T10:14:05;10.70;;;8.00;;
41903;SDS011;27586;51.124;4.182;2023-08-24T10:16:37;11.48;;;7.70;;
41903;SDS011;27586;51.124;4.182;2023-08-24T10:19:04;8.98;;;7.60;;
41903;SDS011;27586;51.124;4.182;2023-08-24T10:21:30;9.90;;;7.30;;
41903;SDS011;27586;51.124;4.182;2023-08-24T10:23:56;9.98;;;7.78;;
41903;SDS011;27586;51.124;4.182;2023-08-24T10:26:23;11.55;;;6.80;;
41903;SDS011;27586;51.124;4.182;2023-08-24T10:28:52;10.35;;;7.30;;
41903;SDS011;27586;51.124;4.182;2023-08-24T10:31:18;9.23;;;6.45;;
41903;SDS011;27586;51.124;4.182;2023-08-24T10:33:45;11.15;;;7.00;;
41903;SDS011;27586;51.124;4.182;2023-08-24T10:36:15;10.48;;;7.00;;
41903;SDS011;27586;51.124;4.182;2023-08-24T10:38:43;7.65;;;6.63;;
41903;SDS011;27586;51.124;4.182;2023-08-24T10:41:09;8.98;;;7.20;;
41903;SDS011;27586;51.124;4.182;2023-08-24T10:43:39;11.13;;;6.88;;
41903;SDS011;27586;51.124;4.182;2023-08-24T10:46:11;7.97;;;6.30;;
41903;SDS011;27586;51.124;4.182;2023-08-24T10:54:00;10.13;;;6.32;;
41903;SDS011;27586;51.124;4.182;2023-08-24T11:01:40;9.43;;;5.82;;
41903;SDS011;27586;51.124;4.182;2023-08-24T11:04:07;8.68;;;6.10;;
41903;SDS011;27586;51.124;4.182;2023-08-24T11:06:33;6.22;;;5.70;;
41903;SDS011;27586;51.124;4.182;2023-08-24T11:09:08;6.10;;;5.32;;
41903;SDS011;27586;51.124;4.182;2023-08-24T11:11:40;9.38;;;5.45;;
41903;SDS011;27586;51.124;4.182;2023-08-24T11:14:16;5.95;;;4.90;;
41903;SDS011;27586;51.124;4.182;2023-08-24T11:16:47;7.20;;;4.93;;
41903;SDS011;27586;51.124;4.182;2023-08-24T11:19:14;6.28;;;4.60;;
41903;SDS011;27586;51.124;4.182;2023-08-24T11:21:44;7.05;;;5.10;;
41903;SDS011;27586;51.124;4.182;2023-08-24T11:24:14;5.80;;;5.03;;
41903;SDS011;27586;51.124;4.182;2023-08-24T11:26:47;5.95;;;4.78;;
41903;SDS011;27586;51.124;4.182;2023-08-24T11:29:14;5.63;;;4.53;;
41903;SDS011;27586;51.124;4.182;2023-08-24T11:31:40;6.88;;;4.90;;
41903;SDS011;27586;51.124;4.182;2023-08-24T11:34:07;6.47;;;5.10;;
41903;SDS011;27586;51.124;4.182;2023-08-24T11:36:42;6.07;;;4.10;;
41903;SDS011;27586;51.124;4.182;2023-08-24T11:39:14;4.95;;;4.43;;
41903;SDS011;27586;51.124;4.182;2023-08-24T11:41:45;6.78;;;4.28;;
41903;SDS011;27586;51.124;4.182;2023-08-24T11:44:23;6.45;;;3.97;;
41903;SDS011;27586;51.124;4.182;2023-08-24T11:46:48;6.32;;;4.13;;
41903;SDS011;27586;51.124;4.182;2023-08-24T11:49:14;6.05;;;3.75;;
41903;SDS011;27586;51.124;4.182;2023-08-24T11:51:40;6.10;;;3.80;;
41903;SDS011;27586;51.124;4.182;2023-08-24T11:54:06;4.93;;;3.67;;
41903;SDS011;27586;51.124;4.182;2023-08-24T11:56:33;4.75;;;3.97;;
41903;SDS011;27586;51.124;4.182;2023-08-24T11:59:05;3.20;;;2.90;;
41903;SDS011;27586;51.124;4.182;2023-08-24T12:01:35;4.85;;;3.63;;
41903;SDS011;27586;51.124;4.182;2023-08-24T12:04:01;3.85;;;3.45;;
41903;SDS011;27586;51.124;4.182;2023-08-24T12:06:27;4.15;;;3.30;;
41903;SDS011;27586;51.124;4.182;2023-08-24T12:08:53;6.65;;;3.60;;
41903;SDS011;27586;51.124;4.182;2023-08-24T12:11:21;6.35;;;3.45;;
41903;SDS011;27586;51.124;4.182;2023-08-24T12:13:50;4.00;;;3.60;;
41903;SDS011;27586;51.124;4.182;2023-08-24T12:16:18;3.97;;;3.10;;
41903;SDS011;27586;51.124;4.182;2023-08-24T12:18:52;3.83;;;3.08;;
41903;SDS011;27586;51.124;4.182;2023-08-24T12:21:19;3.95;;;2.97;;
41903;SDS011;27586;51.124;4.182;2023-08-24T12:26:22;4.78;;;3.20;;
41903;SDS011;27586;51.124;4.182;2023-08-24T12:28:50;4.75;;;3.30;;
41903;SDS011;27586;51.124;4.182;2023-08-24T12:31:17;4.57;;;3.15;;
41903;SDS011;27586;51.124;4.182;2023-08-24T12:33:44;4.80;;;3.50;;
41903;SDS011;27586;51.124;4.182;2023-08-24T12:36:10;6.45;;;3.53;;
41903;SDS011;27586;51.124;4.182;2023-08-24T12:38:36;3.92;;;2.92;;
41903;SDS011;27586;51.124;4.182;2023-08-24T12:41:02;3.60;;;3.08;;
41903;SDS011;27586;51.124;4.182;2023-08-24T12:43:28;5.75;;;3.22;;
41903;SDS011;27586;51.124;4.182;2023-08-24T12:45:53;6.32;;;3.53;;
41903;SDS011;27586;51.124;4.182;2023-08-24T12:48:19;5.93;;;3.42;;
41903;SDS011;27586;51.124;4.182;2023-08-24T12:50:45;4.20;;;3.20;;
41903;SDS011;27586;51.124;4.182;2023-08-24T12:53:10;6.32;;;3.50;;
41903;SDS011;27586;51.124;4.182;2023-08-24T12:55:38;5.57;;;3.40;;
41903;SDS011;27586;51.124;4.182;2023-08-24T12:58:05;5.00;;;3.25;;
41903;SDS011;27586;51.124;4.182;2023-08-24T13:00:31;6.03;;;3.60;;
41903;SDS011;27586;51.124;4.182;2023-08-24T13:02:57;5.88;;;4.05;;
41903;SDS011;27586;51.124;4.182;2023-08-24T13:05:22;3.78;;;3.33;;
41903;SDS011;27586;51.124;4.182;2023-08-24T13:07:49;5.43;;;3.90;;
41903;SDS011;27586;51.124;4.182;2023-08-24T13:10:15;4.70;;;3.58;;
41903;SDS011;27586;51.124;4.182;2023-08-24T13:12:41;5.00;;;3.78;;
41903;SDS011;27586;51.124;4.182;2023-08-24T13:15:07;4.78;;;3.72;;
41903;SDS011;27586;51.124;4.182;2023-08-24T13:17:34;6.90;;;3.85;;
41903;SDS011;27586;51.124;4.182;2023-08-24T13:20:00;4.30;;;3.45;;
41903;SDS011;27586;51.124;4.182;2023-08-24T13:22:25;5.10;;;3.45;;
41903;SDS011;27586;51.124;4.182;2023-08-24T13:24:51;4.07;;;3.15;;
41903;SDS011;27586;51.124;4.182;2023-08-24T13:27:17;4.13;;;3.38;;
41903;SDS011;27586;51.124;4.182;2023-08-24T13:29:43;4.15;;;3.40;;
41903;SDS011;27586;51.124;4.182;2023-08-24T13:32:08;5.97;;;3.40;;
41903;SDS011;27586;51.124;4.182;2023-08-24T13:34:36;5.20;;;3.40;;
41903;SDS011;27586;51.124;4.182;2023-08-24T13:37:02;4.50;;;3.58;;
41903;SDS011;27586;51.124;4.182;2023-08-24T13:39:29;4.75;;;3.30;;
41903;SDS011;27586;51.124;4.182;2023-08-24T13:41:58;5.20;;;3.30;;
41903;SDS011;27586;51.124;4.182;2023-08-24T13:44:24;4.07;;;3.13;;
41903;SDS011;27586;51.124;4.182;2023-08-24T13:46:50;5.53;;;3.33;;
41903;SDS011;27586;51.124;4.182;2023-08-24T13:49:17;6.03;;;3.60;;
41903;SDS011;27586;51.124;4.182;2023-08-24T13:51:43;4.13;;;3.15;;
41903;SDS011;27586;51.124;4.182;2023-08-24T13:54:27;6.80;;;3.13;;
41903;SDS011;27586;51.124;4.182;2023-08-24T13:56:53;3.42;;;3.00;;
41903;SDS011;27586;51.124;4.182;2023-08-24T13:59:19;5.60;;;3.33;;
41903;SDS011;27586;51.124;4.182;2023-08-24T14:01:46;5.85;;;3.55;;
41903;SDS011;27586;51.124;4.182;2023-08-24T14:04:11;4.63;;;2.70;;
41903;SDS011;27586;51.124;4.182;2023-08-24T14:06:37;6.20;;;3.03;;
41903;SDS011;27586;51.124;4.182;2023-08-24T14:09:03;4.35;;;2.85;;
41903;SDS011;27586;51.124;4.182;2023-08-24T14:11:29;5.57;;;3.17;;
41903;SDS011;27586;51.124;4.182;2023-08-24T14:13:55;6.28;;;2.95;;
41903;SDS011;27586;51.124;4.182;2023-08-24T14:16:22;3.72;;;2.63;;
41903;SDS011;27586;51.124;4.182;2023-08-24T14:18:47;4.68;;;2.88;;
41903;SDS011;27586;51.124;4.182;2023-08-24T14:21:13;3.97;;;2.72;;
41903;SDS011;27586;51.124;4.182;2023-08-24T14:23:40;4.13;;;2.90;;
41903;SDS011;27586;51.124;4.182;2023-08-24T14:26:05;4.63;;;2.75;;
41903;SDS011;27586;51.124;4.182;2023-08-24T14:31:13;3.58;;;2.63;;
41903;SDS011;27586;51.124;4.182;2023-08-24T14:33:39;4.30;;;2.75;;
41903;SDS011;27586;51.124;4.182;2023-08-24T14:36:05;4.57;;;2.55;;
41903;SDS011;27586;51.124;4.182;2023-08-24T14:38:30;5.68;;;2.95;;
41903;SDS011;27586;51.124;4.182;2023-08-24T14:40:56;3.88;;;2.60;;
41903;SDS011;27586;51.124;4.182;2023-08-24T14:43:21;4.45;;;2.45;;
41903;SDS011;27586;51.124;4.182;2023-08-24T14:45:47;4.30;;;2.42;;
41903;SDS011;27586;51.124;4.182;2023-08-24T14:48:13;4.70;;;2.58;;
41903;SDS011;27586;51.124;4.182;2023-08-24T14:50:39;5.28;;;2.47;;
41903;SDS011;27586;51.124;4.182;2023-08-24T14:53:05;3.20;;;2.30;;
41903;SDS011;27586;51.124;4.182;2023-08-24T14:55:31;4.70;;;2.20;;
41903;SDS011;27586;51.124;4.182;2023-08-24T14:57:56;3.05;;;2.40;;
41903;SDS011;27586;51.124;4.182;2023-08-24T15:00:24;6.28;;;2.60;;
41903;SDS011;27586;51.124;4.182;2023-08-24T15:02:50;2.30;;;2.10;;
41903;SDS011;27586;51.124;4.182;2023-08-24T15:05:16;4.80;;;2.35;;